Time;durP1;ratioP1;P1;durP2;ratioP2;P2;SDS_P1;SDS_P2;PMS_P1;PMS_P2;Temp;Humidity;BMP_temperature;BMP_pressure;BME280_temperature;BME280_humidity;BME280_pressure;Samples;Min_cycle;Max_cycle;Signal;HPM_P1;HPM_P2
2021/09/11 00:00:01;;;;;;;21.05;13.25;;;18.10;99.90;;;;;;4956684;28;20038;-81
2021/09/11 00:02:26;;;;;;;19.35;13.75;;;18.10;99.90;;;;;;4943797;28;20496;-81
2021/09/11 00:04:52;;;;;;;19.20;13.70;;;18.00;99.90;;;;;;4954638;29;20214;-81
2021/09/11 00:07:17;;;;;;;18.15;13.25;;;17.90;99.90;;;;;;4950784;28;20027;-80
2021/09/11 00:09:43;;;;;;;17.83;12.82;;;17.90;99.90;;;;;;4954903;29;20031;-81
2021/09/11 00:12:10;;;;;;;19.00;13.15;;;17.80;99.90;;;;;;4955540;28;20038;-81
2021/09/11 00:14:36;;;;;;;19.88;13.35;;;17.80;99.90;;;;;;4954411;28;20034;-82
2021/09/11 00:17:02;;;;;;;18.45;13.20;;;17.90;99.90;;;;;;4956018;28;20043;-81
2021/09/11 00:19:28;;;;;;;21.20;14.50;;;17.90;99.90;;;;;;4954946;28;20034;-81
2021/09/11 00:21:54;;;;;;;16.15;12.60;;;17.90;99.90;;;;;;4956194;28;20031;-81
2021/09/11 00:24:20;;;;;;;22.77;14.15;;;17.90;99.90;;;;;;4954554;28;20058;-81
2021/09/11 00:26:45;;;;;;;20.42;15.18;;;17.90;99.90;;;;;;4956386;28;20060;-81
2021/09/11 00:29:11;;;;;;;19.38;13.52;;;17.90;99.90;;;;;;4954799;29;20023;-81
2021/09/11 00:31:36;;;;;;;15.90;12.70;;;17.90;99.90;;;;;;4956246;29;20023;-81
2021/09/11 00:34:02;;;;;;;18.85;12.68;;;17.90;99.90;;;;;;4946095;29;20393;-81
2021/09/11 00:36:28;;;;;;;18.73;12.73;;;17.90;99.90;;;;;;4953405;29;20086;-81
2021/09/11 00:38:54;;;;;;;18.58;13.90;;;17.90;99.90;;;;;;4949035;28;20028;-81
2021/09/11 00:41:19;;;;;;;19.63;14.15;;;17.90;99.90;;;;;;4955401;29;20181;-81
2021/09/11 00:43:48;;;;;;;19.38;13.07;;;17.90;99.90;;;;;;4951539;28;20060;-80
2021/09/11 00:46:15;;;;;;;18.02;12.43;;;17.90;99.90;;;;;;4953902;28;20047;-79
2021/09/11 00:48:41;;;;;;;18.42;12.85;;;17.80;99.90;;;;;;4954062;28;20027;-80
2021/09/11 00:51:07;;;;;;;15.45;11.63;;;17.80;99.90;;;;;;4945378;28;20028;-80
2021/09/11 00:53:33;;;;;;;19.35;13.00;;;17.80;99.90;;;;;;4968365;28;20078;-80
2021/09/11 00:55:59;;;;;;;13.98;10.70;;;17.80;99.90;;;;;;4954545;29;20035;-80
2021/09/11 00:58:25;;;;;;;17.58;12.27;;;17.80;99.90;;;;;;4960893;28;20031;-80
2021/09/11 01:00:50;;;;;;;17.25;11.68;;;17.70;99.90;;;;;;4948800;29;20376;-81
2021/09/11 01:03:16;;;;;;;18.58;12.13;;;17.60;99.90;;;;;;4957027;28;20043;-81
2021/09/11 01:05:44;;;;;;;18.20;11.45;;;17.60;99.90;;;;;;4956781;28;20460;-80
2021/09/11 01:08:09;;;;;;;15.68;11.35;;;17.60;99.90;;;;;;4956606;28;20530;-80
2021/09/11 01:10:39;;;;;;;20.00;13.15;;;17.50;99.90;;;;;;4956623;28;20035;-80
2021/09/11 01:13:07;;;;;;;18.23;13.38;;;17.40;99.90;;;;;;4955202;28;20455;-80
2021/09/11 01:15:37;;;;;;;19.23;14.05;;;17.40;99.90;;;;;;4954045;28;20031;-80
2021/09/11 01:18:03;;;;;;;20.25;14.38;;;17.30;99.90;;;;;;4955630;28;20046;-81
2021/09/11 01:20:29;;;;;;;19.50;13.70;;;17.30;99.90;;;;;;4956370;28;20035;-80
2021/09/11 01:22:55;;;;;;;22.08;14.93;;;17.20;99.90;;;;;;4957235;28;20033;-80
2021/09/11 01:25:21;;;;;;;21.08;14.95;;;17.20;99.90;;;;;;4967566;28;20078;-80
2021/09/11 01:27:46;;;;;;;18.67;14.13;;;17.20;99.90;;;;;;4959560;28;20049;-80
2021/09/11 01:30:14;;;;;;;19.38;13.82;;;17.10;99.90;;;;;;4956992;29;20039;-80
2021/09/11 01:32:40;;;;;;;24.30;15.05;;;17.10;99.90;;;;;;4955195;28;20053;-80
2021/09/11 01:35:07;;;;;;;20.80;14.45;;;17.10;99.90;;;;;;4953251;28;20027;-80
2021/09/11 01:37:33;;;;;;;19.83;14.13;;;17.00;99.90;;;;;;4947699;28;20039;-80
2021/09/11 01:39:59;;;;;;;22.30;14.20;;;17.00;99.90;;;;;;4954984;28;20090;-80
2021/09/11 01:42:26;;;;;;;21.90;14.63;;;17.00;99.90;;;;;;4953623;28;20039;-79
2021/09/11 01:45:01;;;;;;;18.35;13.60;;;16.90;99.90;;;;;;4951205;29;20027;-80
2021/09/11 01:47:27;;;;;;;22.02;14.25;;;16.80;99.90;;;;;;4952777;29;20076;-80
2021/09/11 01:49:53;;;;;;;22.77;13.45;;;16.80;99.90;;;;;;4953817;29;20062;-80
2021/09/11 01:52:20;;;;;;;19.70;12.60;;;16.80;99.90;;;;;;4953861;29;20027;-80
2021/09/11 01:54:46;;;;;;;19.25;13.13;;;16.80;99.90;;;;;;4954671;28;20098;-80
2021/09/11 01:57:12;;;;;;;18.70;12.95;;;16.70;99.90;;;;;;4954317;28;20129;-80
2021/09/11 01:59:39;;;;;;;19.65;13.27;;;16.80;99.90;;;;;;4952320;29;20035;-80
2021/09/11 02:02:06;;;;;;;19.02;13.02;;;16.70;99.90;;;;;;4953110;29;20821;-80
2021/09/11 02:04:32;;;;;;;20.20;13.23;;;16.70;99.90;;;;;;4955351;28;20031;-80
2021/09/11 02:06:57;;;;;;;16.08;12.27;;;16.60;99.90;;;;;;4952460;29;20110;-80
2021/09/11 02:09:23;;;;;;;23.02;14.82;;;16.60;99.90;;;;;;4944914;28;20027;-80
2021/09/11 02:11:49;;;;;;;22.23;13.70;;;16.60;99.90;;;;;;4953574;28;20109;-80
2021/09/11 02:14:15;;;;;;;22.15;13.57;;;16.50;99.90;;;;;;4952870;28;20034;-79
2021/09/11 02:16:40;;;;;;;23.40;14.38;;;16.50;99.90;;;;;;4954124;28;20039;-79
2021/09/11 02:19:06;;;;;;;20.50;14.35;;;16.40;99.90;;;;;;4953370;28;20426;-79
2021/09/11 02:21:31;;;;;;;19.88;13.13;;;16.40;99.90;;;;;;4945366;29;20617;-80
2021/09/11 02:23:57;;;;;;;18.67;13.40;;;16.50;99.90;;;;;;4951741;28;20034;-80
2021/09/11 02:26:22;;;;;;;21.55;13.43;;;16.40;99.90;;;;;;4953229;28;20484;-79
2021/09/11 02:28:48;;;;;;;22.33;14.45;;;16.30;99.90;;;;;;4951960;28;20019;-79
2021/09/11 02:31:14;;;;;;;18.48;12.60;;;16.30;99.90;;;;;;4939480;29;20492;-80
2021/09/11 02:33:42;;;;;;;20.98;13.85;;;16.30;99.90;;;;;;4945265;29;20027;-80
2021/09/11 02:36:08;;;;;;;22.25;14.20;;;16.30;99.90;;;;;;4951966;28;20038;-80
2021/09/11 02:38:33;;;;;;;18.15;12.73;;;16.20;99.90;;;;;;4950551;29;20038;-79
2021/09/11 02:40:59;;;;;;;21.08;14.18;;;16.20;99.90;;;;;;4950153;28;20031;-80
2021/09/11 02:43:24;;;;;;;21.63;14.15;;;16.20;99.90;;;;;;4947135;28;20031;-79
2021/09/11 02:45:50;;;;;;;21.52;13.98;;;16.10;99.90;;;;;;4950017;28;20047;-80
2021/09/11 02:48:16;;;;;;;23.17;14.98;;;16.10;99.90;;;;;;4951987;28;20035;-80
2021/09/11 02:50:41;;;;;;;22.92;14.80;;;16.10;99.90;;;;;;4951446;28;20395;-79
2021/09/11 02:53:07;;;;;;;24.98;14.68;;;16.00;99.90;;;;;;4948709;29;20439;-80
2021/09/11 02:55:32;;;;;;;25.88;15.23;;;16.00;99.90;;;;;;4951229;29;20039;-80
2021/09/11 02:57:58;;;;;;;27.58;17.02;;;16.00;99.90;;;;;;4952392;28;20407;-79
2021/09/11 03:00:23;;;;;;;28.83;16.33;;;15.90;99.90;;;;;;4951312;29;20483;-80
2021/09/11 03:02:49;;;;;;;24.35;16.42;;;15.90;99.90;;;;;;4953886;28;20071;-80
2021/09/11 03:05:14;;;;;;;29.95;17.17;;;15.90;99.90;;;;;;4951699;28;20031;-80
2021/09/11 03:07:40;;;;;;;23.77;16.98;;;15.90;99.90;;;;;;4952905;28;20035;-80
2021/09/11 03:10:06;;;;;;;27.48;15.95;;;15.80;99.90;;;;;;4949736;28;20031;-80
2021/09/11 03:12:32;;;;;;;22.42;15.57;;;15.80;99.90;;;;;;4945236;28;20365;-80
2021/09/11 03:14:57;;;;;;;30.90;18.30;;;15.80;99.90;;;;;;4953238;28;20078;-80
2021/09/11 03:17:23;;;;;;;26.10;17.02;;;15.80;99.90;;;;;;4952170;29;20348;-79
2021/09/11 03:19:48;;;;;;;27.40;16.98;;;15.80;99.90;;;;;;4951396;28;20029;-79
2021/09/11 03:22:14;;;;;;;31.88;18.95;;;15.80;99.90;;;;;;4952292;28;20069;-79
2021/09/11 03:24:39;;;;;;;25.67;18.13;;;15.80;99.90;;;;;;4952757;28;20451;-79
2021/09/11 03:27:06;;;;;;;27.70;17.67;;;15.70;99.90;;;;;;4952151;29;20054;-80
2021/09/11 03:29:31;;;;;;;28.77;18.00;;;15.70;99.90;;;;;;4945405;28;20042;-79
2021/09/11 03:31:57;;;;;;;28.98;17.85;;;15.70;99.90;;;;;;4951512;28;20031;-80
2021/09/11 03:34:22;;;;;;;28.20;17.55;;;15.70;99.90;;;;;;4950270;28;20514;-79
2021/09/11 03:36:48;;;;;;;27.08;18.05;;;15.70;99.90;;;;;;4942029;29;20047;-80
2021/09/11 03:39:13;;;;;;;27.00;17.55;;;15.70;99.90;;;;;;4951805;29;20036;-80
2021/09/11 03:41:39;;;;;;;27.30;17.95;;;15.70;99.90;;;;;;4952605;28;20205;-80
2021/09/11 03:44:04;;;;;;;26.02;17.08;;;15.60;99.90;;;;;;4952694;28;20035;-80
2021/09/11 03:46:30;;;;;;;25.55;16.20;;;15.70;99.90;;;;;;4949939;28;20055;-80
2021/09/11 03:48:55;;;;;;;28.70;18.23;;;15.60;99.90;;;;;;4952496;28;20036;-80
2021/09/11 03:51:21;;;;;;;25.80;16.52;;;15.60;99.90;;;;;;4950952;28;20395;-80
2021/09/11 03:53:46;;;;;;;28.52;17.17;;;15.60;99.90;;;;;;4952816;28;20035;-80
2021/09/11 03:56:12;;;;;;;26.38;16.52;;;15.60;99.90;;;;;;4952323;28;20042;-79
2021/09/11 03:58:38;;;;;;;22.80;15.57;;;15.60;99.90;;;;;;4950032;28;20054;-80
2021/09/11 04:01:04;;;;;;;28.83;16.33;;;15.60;99.90;;;;;;4952289;29;20051;-79
2021/09/11 04:03:31;;;;;;;31.15;18.10;;;15.60;99.90;;;;;;4950646;28;20036;-80
2021/09/11 04:05:57;;;;;;;25.58;16.33;;;15.60;99.90;;;;;;4952022;28;20107;-80
2021/09/11 04:08:24;;;;;;;24.27;16.42;;;15.60;99.90;;;;;;4951986;28;20403;-80
2021/09/11 04:10:49;;;;;;;26.85;16.27;;;15.60;99.90;;;;;;4952513;28;20102;-79
2021/09/11 04:13:15;;;;;;;25.65;16.00;;;15.60;99.90;;;;;;4951682;29;20467;-79
2021/09/11 04:15:40;;;;;;;24.95;15.85;;;15.70;99.90;;;;;;4949895;28;20102;-79
2021/09/11 04:18:06;;;;;;;24.35;15.63;;;15.70;99.90;;;;;;4951242;29;20039;-79
2021/09/11 04:20:31;;;;;;;24.92;15.75;;;15.70;99.90;;;;;;4952268;28;20035;-79
2021/09/11 04:22:57;;;;;;;24.60;15.52;;;15.80;99.90;;;;;;4947116;28;20032;-80
2021/09/11 04:25:22;;;;;;;20.10;15.30;;;15.90;99.90;;;;;;4945848;29;20039;-80
2021/09/11 04:27:48;;;;;;;25.58;15.20;;;15.90;99.90;;;;;;4951704;29;20031;-79
2021/09/11 04:30:13;;;;;;;22.52;14.52;;;15.90;99.90;;;;;;4943322;28;20098;-80
2021/09/11 04:32:39;;;;;;;27.38;14.75;;;15.90;99.90;;;;;;4951248;29;20455;-79
2021/09/11 04:35:05;;;;;;;22.35;14.13;;;16.00;99.90;;;;;;4949568;28;20023;-79
2021/09/11 04:37:30;;;;;;;19.23;13.90;;;16.00;99.90;;;;;;4950911;28;20086;-80
2021/09/11 04:39:56;;;;;;;24.63;14.23;;;16.00;99.90;;;;;;4953045;28;20531;-79
2021/09/11 04:42:22;;;;;;;23.33;12.60;;;16.10;99.90;;;;;;4955189;29;20122;-79
2021/09/11 04:44:47;;;;;;;19.85;13.40;;;16.10;99.90;;;;;;4953564;28;20106;-79
2021/09/11 04:47:13;;;;;;;21.30;13.75;;;16.10;99.90;;;;;;4956127;28;20047;-80
2021/09/11 04:49:38;;;;;;;18.25;13.18;;;16.10;99.90;;;;;;4953903;28;20640;-79
2021/09/11 04:52:07;;;;;;;17.63;12.35;;;16.20;99.90;;;;;;4953297;28;20599;-80
2021/09/11 04:54:33;;;;;;;17.65;12.15;;;16.20;99.90;;;;;;4953848;29;20035;-79
2021/09/11 04:56:58;;;;;;;17.58;12.35;;;16.20;99.90;;;;;;4955637;28;20396;-80
2021/09/11 04:59:25;;;;;;;19.17;12.43;;;16.20;99.90;;;;;;4952412;28;20027;-80
2021/09/11 05:01:51;;;;;;;20.20;13.23;;;16.20;99.90;;;;;;4955629;29;20027;-79
2021/09/11 05:04:17;;;;;;;21.10;12.75;;;16.20;99.90;;;;;;4950351;28;20106;-79
2021/09/11 05:06:43;;;;;;;19.35;12.35;;;16.20;99.90;;;;;;4954212;29;20162;-79
2021/09/11 05:09:08;;;;;;;16.90;11.25;;;16.20;99.90;;;;;;4963151;28;20097;-79
2021/09/11 05:11:34;;;;;;;16.45;11.35;;;16.20;99.90;;;;;;4956638;28;20055;-77
2021/09/11 05:13:59;;;;;;;18.02;11.73;;;16.10;99.90;;;;;;4952393;29;20499;-79
2021/09/11 05:16:25;;;;;;;20.17;12.13;;;16.10;99.90;;;;;;4954948;29;20043;-80
2021/09/11 05:18:50;;;;;;;16.67;11.68;;;16.00;99.90;;;;;;4942344;29;20047;-80
2021/09/11 05:21:16;;;;;;;22.75;12.15;;;16.00;99.90;;;;;;4942965;29;20042;-79
2021/09/11 05:23:42;;;;;;;19.25;13.02;;;16.00;99.90;;;;;;4947206;29;20110;-79
2021/09/11 05:26:08;;;;;;;17.63;11.13;;;16.00;99.90;;;;;;4949171;29;20035;-80
2021/09/11 05:28:34;;;;;;;19.17;12.20;;;16.10;99.90;;;;;;4939814;29;20035;-79
2021/09/11 05:31:01;;;;;;;17.88;11.10;;;16.10;99.90;;;;;;4953070;28;20027;-77
2021/09/11 05:33:26;;;;;;;23.33;12.30;;;16.10;99.90;;;;;;4953053;29;20027;-77
2021/09/11 05:35:52;;;;;;;17.90;12.23;;;16.10;99.90;;;;;;4966805;23;20094;-69
2021/09/11 05:38:18;;;;;;;17.92;11.73;;;16.10;99.90;;;;;;4969424;28;20118;-70
2021/09/11 05:40:43;;;;;;;17.52;10.48;;;16.20;99.90;;;;;;4973670;28;20027;-70
2021/09/11 05:43:09;;;;;;;15.82;10.73;;;16.20;99.90;;;;;;4966452;28;20033;-69
2021/09/11 05:45:35;;;;;;;16.88;11.48;;;16.20;99.90;;;;;;4967395;28;20069;-70
2021/09/11 05:48:01;;;;;;;19.98;11.77;;;16.30;99.90;;;;;;4972196;28;20027;-70
2021/09/11 05:50:27;;;;;;;19.02;11.32;;;16.30;99.90;;;;;;4969519;28;20035;-69
2021/09/11 05:52:53;;;;;;;16.52;11.10;;;16.30;99.90;;;;;;4961644;28;20026;-70
2021/09/11 05:55:18;;;;;;;15.70;10.43;;;16.30;99.90;;;;;;4972228;28;20027;-71
2021/09/11 05:57:44;;;;;;;14.70;9.48;;;16.30;99.90;;;;;;4973297;28;20404;-71
2021/09/11 06:00:10;;;;;;;12.73;9.88;;;16.40;99.90;;;;;;4967203;28;20037;-72
2021/09/11 06:02:36;;;;;;;15.23;9.20;;;16.40;99.90;;;;;;4969171;28;20027;-69
2021/09/11 06:05:01;;;;;;;11.93;9.60;;;16.40;99.90;;;;;;4968683;28;20027;-69
2021/09/11 06:07:27;;;;;;;15.90;9.75;;;16.50;99.90;;;;;;4964708;28;20162;-70
2021/09/11 06:09:52;;;;;;;16.08;10.32;;;16.50;99.90;;;;;;4974153;28;20166;-70
2021/09/11 06:12:18;;;;;;;15.57;9.25;;;16.50;99.90;;;;;;4972425;28;20023;-69
2021/09/11 06:14:43;;;;;;;14.90;9.30;;;16.40;99.90;;;;;;4973677;28;20493;-70
2021/09/11 06:17:09;;;;;;;15.48;9.70;;;16.50;99.90;;;;;;4965183;28;20102;-70
2021/09/11 06:19:36;;;;;;;15.32;9.30;;;16.50;99.90;;;;;;4972209;28;20146;-70
2021/09/11 06:22:02;;;;;;;13.90;8.88;;;16.50;99.90;;;;;;4969546;28;20050;-70
2021/09/11 06:24:28;;;;;;;19.67;9.02;;;16.60;99.90;;;;;;4972577;28;20105;-69
2021/09/11 06:26:54;;;;;;;19.17;9.80;;;16.70;99.90;;;;;;4973882;28;20031;-70
2021/09/11 06:29:20;;;;;;;16.38;9.70;;;16.80;99.90;;;;;;4971377;28;20504;-69
2021/09/11 06:31:46;;;;;;;15.23;8.90;;;16.80;99.90;;;;;;4954509;28;20043;-70
2021/09/11 06:34:11;;;;;;;15.13;10.00;;;16.90;99.90;;;;;;4968239;28;20042;-70
2021/09/11 06:36:37;;;;;;;16.75;9.63;;;16.90;99.90;;;;;;4966561;28;20047;-70
2021/09/11 06:39:03;;;;;;;14.70;9.98;;;17.00;99.90;;;;;;4970285;28;20081;-70
2021/09/11 06:41:29;;;;;;;15.48;10.77;;;17.10;99.90;;;;;;4971840;28;20466;-70
2021/09/11 06:43:54;;;;;;;12.80;9.15;;;17.20;99.90;;;;;;4968757;28;20026;-70
2021/09/11 06:46:20;;;;;;;18.05;10.52;;;17.40;99.90;;;;;;4954513;28;20128;-69
2021/09/11 06:48:46;;;;;;;16.65;9.40;;;17.50;99.90;;;;;;4969759;28;20050;-70
2021/09/11 06:51:12;;;;;;;15.48;8.80;;;17.50;99.90;;;;;;4972532;28;20027;-69
2021/09/11 06:53:38;;;;;;;15.90;9.45;;;17.40;99.90;;;;;;4968514;28;20049;-69
2021/09/11 06:56:04;;;;;;;14.38;8.95;;;17.50;99.90;;;;;;4966960;28;20117;-70
2021/09/11 06:58:30;;;;;;;19.55;8.48;;;17.40;99.90;;;;;;4970931;28;20030;-70
2021/09/11 07:00:56;;;;;;;11.95;8.38;;;17.40;99.90;;;;;;4971998;28;20101;-69
2021/09/11 07:03:21;;;;;;;15.40;8.23;;;17.40;99.90;;;;;;4971114;28;20023;-70
2021/09/11 07:05:47;;;;;;;17.63;9.52;;;17.40;99.90;;;;;;4971089;28;20039;-70
2021/09/11 07:08:12;;;;;;;17.80;9.02;;;17.50;99.90;;;;;;4971896;28;20042;-70
2021/09/11 07:10:38;;;;;;;12.23;8.18;;;17.60;99.90;;;;;;4963771;28;20038;-70
2021/09/11 07:13:04;;;;;;;14.65;9.75;;;17.60;99.90;;;;;;4970163;28;20069;-69
2021/09/11 07:15:29;;;;;;;13.65;9.55;;;17.70;99.90;;;;;;4969961;28;20042;-69
2021/09/11 07:17:55;;;;;;;12.10;8.70;;;17.70;99.90;;;;;;4970716;28;20033;-69
2021/09/11 07:20:21;;;;;;;14.77;9.13;;;17.80;99.90;;;;;;4962941;28;20097;-69
2021/09/11 07:22:47;;;;;;;10.95;8.73;;;17.90;99.90;;;;;;4952569;29;20086;-70
2021/09/11 07:25:13;;;;;;;14.20;8.77;;;17.90;99.90;;;;;;4967566;28;20077;-69
2021/09/11 07:27:38;;;;;;;14.75;9.60;;;17.90;99.90;;;;;;4967547;28;20031;-69
2021/09/11 07:30:05;;;;;;;13.68;9.75;;;17.90;99.90;;;;;;4964210;28;20027;-70
2021/09/11 07:32:31;;;;;;;15.20;9.70;;;18.00;99.90;;;;;;4970975;28;20552;-69
2021/09/11 07:34:56;;;;;;;16.05;9.75;;;18.10;99.90;;;;;;4967406;28;20038;-69
2021/09/11 07:37:22;;;;;;;16.60;10.38;;;18.10;99.90;;;;;;4961408;28;20173;-69
2021/09/11 07:39:47;;;;;;;13.73;10.88;;;18.10;99.90;;;;;;4962154;28;20448;-69
2021/09/11 07:42:14;;;;;;;17.80;11.90;;;18.20;99.90;;;;;;4962102;28;20035;-69
2021/09/11 07:44:40;;;;;;;22.83;12.02;;;18.20;99.90;;;;;;4960965;28;20035;-70
2021/09/11 07:47:06;;;;;;;16.70;12.48;;;18.30;99.90;;;;;;4971187;28;20117;-69
2021/09/11 07:49:31;;;;;;;19.98;11.23;;;18.30;99.90;;;;;;4970669;28;20023;-69
2021/09/11 07:51:57;;;;;;;17.15;10.65;;;18.40;99.90;;;;;;4967729;28;20098;-69
2021/09/11 07:54:22;;;;;;;18.13;11.50;;;18.40;99.90;;;;;;4957100;28;20039;-69
2021/09/11 07:56:48;;;;;;;17.70;11.23;;;18.50;99.90;;;;;;4960421;28;20034;-70
2021/09/11 07:59:13;;;;;;;13.38;11.15;;;18.60;99.90;;;;;;4956151;28;20035;-69
2021/09/11 08:01:39;;;;;;;17.40;11.88;;;18.80;99.90;;;;;;4969143;28;20030;-69
2021/09/11 08:04:04;;;;;;;17.42;11.20;;;18.90;99.90;;;;;;4970777;28;20022;-70
2021/09/11 08:06:30;;;;;;;16.88;11.13;;;19.00;99.90;;;;;;4971170;28;20035;-69
2021/09/11 08:08:55;;;;;;;15.10;11.45;;;19.10;99.90;;;;;;4987243;28;20022;-69
2021/09/11 08:11:21;;;;;;;15.05;10.38;;;19.20;99.90;;;;;;4969018;28;20485;-69
2021/09/11 08:13:47;;;;;;;15.30;11.75;;;19.30;99.90;;;;;;4967737;28;20046;-69
2021/09/11 08:16:12;;;;;;;15.45;12.32;;;19.40;99.90;;;;;;4973834;28;20026;-69
2021/09/11 08:18:38;;;;;;;18.00;12.90;;;19.50;99.90;;;;;;4968113;28;20031;-70
2021/09/11 08:21:04;;;;;;;19.20;13.27;;;19.50;99.90;;;;;;4971642;28;20317;-70
2021/09/11 08:23:30;;;;;;;18.25;12.52;;;19.60;99.90;;;;;;4975084;28;20026;-69
2021/09/11 08:25:55;;;;;;;20.77;12.35;;;19.60;99.90;;;;;;4970836;28;20465;-70
2021/09/11 08:28:21;;;;;;;19.80;12.20;;;19.60;99.90;;;;;;4972763;28;20588;-69
2021/09/11 08:30:48;;;;;;;17.70;14.20;;;19.60;99.90;;;;;;4966381;28;20035;-69
2021/09/11 08:33:15;;;;;;;19.30;14.23;;;19.70;99.90;;;;;;4973378;28;20031;-70
2021/09/11 08:35:42;;;;;;;18.88;13.65;;;19.80;99.90;;;;;;4967316;28;20035;-69
2021/09/11 08:38:08;;;;;;;19.83;14.40;;;19.80;99.90;;;;;;4972006;28;20109;-69
2021/09/11 08:40:34;;;;;;;18.20;13.98;;;19.90;99.90;;;;;;4970309;28;20043;-70
2021/09/11 08:42:59;;;;;;;19.40;13.73;;;19.80;99.90;;;;;;4970946;28;20027;-70
2021/09/11 08:45:25;;;;;;;16.60;13.50;;;19.80;99.90;;;;;;4969850;28;20042;-70
2021/09/11 08:47:53;;;;;;;17.63;13.95;;;19.80;99.90;;;;;;4968070;28;20030;-69
2021/09/11 08:50:19;;;;;;;19.35;15.35;;;19.90;99.90;;;;;;4972239;28;20097;-69
2021/09/11 08:52:47;;;;;;;18.58;15.63;;;19.80;99.90;;;;;;4956320;29;20023;-69
2021/09/11 08:55:15;;;;;;;19.38;15.75;;;19.70;99.90;;;;;;4955817;28;20034;-70
2021/09/11 08:57:56;;;;;;;18.58;14.93;;;19.70;99.90;;;;;;4955767;28;20035;-69
2021/09/11 09:00:44;;;;;;;20.48;16.25;;;19.70;99.90;;;;;;4955639;28;20035;-70
2021/09/11 09:03:34;;;;;;;20.98;16.17;;;19.70;99.90;;;;;;4968435;28;20027;-70
2021/09/11 09:06:25;;;;;;;23.90;16.15;;;19.80;99.90;;;;;;4967099;28;20015;-69
2021/09/11 09:09:09;;;;;;;25.80;17.20;;;19.90;99.90;;;;;;4955712;28;20078;-69
2021/09/11 09:11:36;;;;;;;20.58;16.83;;;19.90;99.90;;;;;;4956948;28;20027;-70
2021/09/11 09:14:01;;;;;;;23.15;17.73;;;20.00;99.90;;;;;;4975231;28;20030;-70
2021/09/11 09:16:32;;;;;;;22.73;17.98;;;20.00;99.90;;;;;;4966451;28;20031;-70
2021/09/11 09:18:58;;;;;;;24.83;18.70;;;20.10;99.60;;;;;;4955682;29;20024;-70
2021/09/11 09:21:30;;;;;;;25.00;18.90;;;20.00;99.70;;;;;;4972648;28;20082;-70
2021/09/11 09:23:58;;;;;;;26.40;18.98;;;20.00;99.80;;;;;;4962446;28;20430;-70
2021/09/11 09:26:25;;;;;;;24.40;17.77;;;19.90;99.90;;;;;;4954208;28;20035;-70
2021/09/11 09:29:05;;;;;;;24.70;18.42;;;19.90;99.90;;;;;;4955725;29;20027;-70
2021/09/11 09:31:31;;;;;;;24.05;17.85;;;19.90;99.90;;;;;;4965822;28;20026;-70
2021/09/11 09:33:57;;;;;;;24.98;19.17;;;19.90;99.90;;;;;;4957561;28;20042;-70
2021/09/11 09:36:29;;;;;;;25.38;19.48;;;19.80;99.90;;;;;;4974010;28;20089;-70
2021/09/11 09:39:03;;;;;;;25.02;18.98;;;19.70;99.90;;;;;;4962489;28;20023;-68
2021/09/11 09:41:41;;;;;;;23.08;17.75;;;19.70;99.90;;;;;;4959823;28;20026;-70
2021/09/11 09:44:07;;;;;;;25.17;18.92;;;19.60;99.90;;;;;;4974429;28;20019;-71
2021/09/11 09:46:38;;;;;;;21.95;16.55;;;19.60;99.90;;;;;;4956039;28;20038;-70
2021/09/11 09:49:03;;;;;;;23.17;17.15;;;19.70;99.90;;;;;;4955120;28;20062;-71
2021/09/11 09:51:32;;;;;;;20.33;17.38;;;19.60;99.90;;;;;;4954882;29;20055;-71
2021/09/11 09:53:59;;;;;;;19.08;16.52;;;19.60;99.90;;;;;;4955085;28;20089;-70
2021/09/11 09:56:27;;;;;;;21.77;17.75;;;19.70;99.90;;;;;;4954499;28;20023;-71
2021/09/11 09:58:53;;;;;;;22.83;18.15;;;19.80;99.90;;;;;;4954733;29;20055;-71
2021/09/11 10:01:20;;;;;;;22.52;18.08;;;19.90;99.90;;;;;;4954224;28;20039;-71
2021/09/11 10:03:46;;;;;;;20.63;16.80;;;20.00;99.90;;;;;;4954747;28;20031;-70
2021/09/11 10:06:22;;;;;;;21.38;17.08;;;20.10;99.90;;;;;;4954833;28;20095;-71
2021/09/11 10:08:51;;;;;;;23.33;16.55;;;20.20;99.90;;;;;;4954723;29;20122;-71
2021/09/11 10:11:17;;;;;;;20.85;16.98;;;20.20;99.90;;;;;;4954208;28;20035;-70
2021/09/11 10:14:00;;;;;;;23.52;17.25;;;20.20;99.90;;;;;;4960595;28;20170;-71
2021/09/11 10:16:34;;;;;;;23.33;17.10;;;20.30;99.90;;;;;;4969422;28;20035;-71
2021/09/11 10:19:13;;;;;;;22.15;18.98;;;20.30;99.90;;;;;;4954898;28;20055;-71
2021/09/11 10:21:38;;;;;;;23.15;18.23;;;20.40;99.60;;;;;;4954756;29;20023;-71
2021/09/11 10:24:11;;;;;;;21.05;17.40;;;20.40;99.70;;;;;;4967942;28;20077;-71
2021/09/11 10:26:58;;;;;;;21.05;18.35;;;20.40;99.60;;;;;;4970002;28;20070;-71
2021/09/11 10:29:33;;;;;;;23.55;19.42;;;20.50;99.60;;;;;;4956482;28;20478;-70
2021/09/11 10:32:05;;;;;;;20.88;17.73;;;20.50;99.40;;;;;;4954097;29;20037;-71
2021/09/11 10:34:53;;;;;;;23.88;19.05;;;20.40;99.40;;;;;;4963083;28;20026;-71
2021/09/11 10:37:32;;;;;;;25.33;20.63;;;20.50;99.40;;;;;;4965291;28;20658;-71
2021/09/11 10:40:33;;;;;;;25.80;20.23;;;20.50;99.60;;;;;;4953977;28;20429;-71
2021/09/11 10:43:03;;;;;;;23.50;19.77;;;20.60;99.60;;;;;;4952837;28;20027;-71
2021/09/11 10:45:53;;;;;;;21.60;19.27;;;20.80;99.50;;;;;;4953343;29;20020;-71
2021/09/11 10:48:52;;;;;;;29.05;21.15;;;21.10;99.10;;;;;;4953672;28;20059;-71
2021/09/11 10:51:24;;;;;;;22.50;18.83;;;21.20;98.60;;;;;;4931738;28;20036;-71
2021/09/11 10:54:15;;;;;;;21.60;19.38;;;21.40;98.60;;;;;;4953741;28;20027;-71
2021/09/11 10:56:48;;;;;;;23.77;18.87;;;21.50;98.00;;;;;;4953648;28;20031;-71
2021/09/11 10:59:23;;;;;;;23.55;19.23;;;21.40;97.50;;;;;;4953278;29;20035;-72
2021/09/11 11:02:04;;;;;;;22.55;19.13;;;21.30;97.50;;;;;;4953645;28;20027;-71
2021/09/11 11:04:49;;;;;;;21.63;18.20;;;21.20;97.50;;;;;;4953371;28;20030;-71
2021/09/11 11:07:19;;;;;;;22.42;18.42;;;21.20;97.60;;;;;;4953179;28;20023;-71
2021/09/11 11:09:49;;;;;;;22.85;19.27;;;21.30;97.60;;;;;;4952503;28;20422;-71
2021/09/11 11:12:29;;;;;;;18.90;16.90;;;21.30;97.30;;;;;;4953194;29;20332;-71
2021/09/11 11:15:01;;;;;;;21.95;17.30;;;21.30;97.30;;;;;;4961106;28;20029;-71
2021/09/11 11:17:28;;;;;;;19.58;17.35;;;21.30;97.30;;;;;;4972462;28;20508;-71
2021/09/11 11:19:54;;;;;;;21.52;18.55;;;21.30;97.30;;;;;;4956179;28;20045;-70
2021/09/11 11:22:26;;;;;;;20.40;17.65;;;21.40;97.20;;;;;;4953034;28;20035;-70
2021/09/11 11:24:53;;;;;;;20.92;16.55;;;21.50;97.10;;;;;;4953272;28;20015;-70
2021/09/11 11:27:21;;;;;;;22.20;18.63;;;21.70;97.10;;;;;;4952437;28;20035;-71
2021/09/11 11:29:48;;;;;;;22.05;17.33;;;21.80;96.70;;;;;;4953139;28;20039;-71
2021/09/11 11:32:15;;;;;;;20.23;16.30;;;21.80;96.60;;;;;;4952781;28;20089;-71
2021/09/11 11:34:40;;;;;;;19.33;17.15;;;22.00;96.50;;;;;;4965471;28;20505;-71
2021/09/11 11:37:11;;;;;;;18.20;16.20;;;22.00;95.90;;;;;;4953114;28;20051;-71
2021/09/11 11:39:42;;;;;;;18.67;16.88;;;22.00;96.00;;;;;;4952661;28;20015;-70
2021/09/11 11:42:19;;;;;;;20.20;16.75;;;22.00;96.10;;;;;;4953017;28;20024;-70
2021/09/11 11:44:48;;;;;;;20.67;16.67;;;22.00;95.70;;;;;;4953222;28;20023;-71
2021/09/11 11:47:25;;;;;;;18.40;16.15;;;22.00;95.50;;;;;;4953160;29;20390;-71
2021/09/11 11:49:52;;;;;;;19.63;16.20;;;21.90;95.60;;;;;;4953284;28;20393;-70
2021/09/11 11:52:18;;;;;;;17.80;15.95;;;21.80;95.90;;;;;;4956716;28;20166;-70
2021/09/11 11:54:46;;;;;;;19.80;17.35;;;21.70;96.00;;;;;;4956886;28;20435;-71
2021/09/11 11:57:17;;;;;;;19.55;17.65;;;21.50;96.10;;;;;;4957129;29;20110;-69
2021/09/11 11:59:43;;;;;;;22.20;18.52;;;21.20;96.40;;;;;;4957050;28;20027;-70
2021/09/11 12:02:24;;;;;;;19.52;17.23;;;20.90;96.80;;;;;;4957176;28;20146;-70
2021/09/11 12:04:51;;;;;;;22.15;19.85;;;20.60;97.40;;;;;;4957042;28;20092;-70
2021/09/11 12:07:33;;;;;;;26.00;21.50;;;20.40;98.10;;;;;;4956962;29;20031;-71
2021/09/11 12:10:00;;;;;;;21.10;18.90;;;20.30;98.60;;;;;;4957120;28;20475;-70
2021/09/11 12:12:43;;;;;;;22.67;19.10;;;20.20;99.10;;;;;;4956505;29;20031;-69
2021/09/11 12:15:13;;;;;;;19.10;17.15;;;20.30;99.60;;;;;;4956665;29;20054;-69
2021/09/11 12:17:56;;;;;;;18.52;16.52;;;20.40;99.80;;;;;;4956672;28;20023;-70
2021/09/11 12:20:24;;;;;;;16.58;13.57;;;20.60;99.90;;;;;;4956762;29;20050;-70
2021/09/11 12:23:10;;;;;;;12.77;9.90;;;20.70;99.90;;;;;;4956852;28;20478;-69
2021/09/11 12:26:00;;;;;;;11.60;10.45;;;20.80;99.50;;;;;;4955986;28;20031;-70
2021/09/11 12:28:45;;;;;;;13.43;10.52;;;20.90;99.50;;;;;;4956145;29;20034;-69
2021/09/11 12:31:18;;;;;;;12.98;11.45;;;21.00;99.30;;;;;;4956644;28;20114;-69